createdAt,value
2019-03-20T00:00:23.913Z,14.60
2019-03-20T00:03:12.378Z,14.13
2019-03-20T00:06:00.283Z,16.00
2019-03-20T00:08:48.479Z,13.57
2019-03-20T00:11:36.318Z,15.30
2019-03-20T00:14:24.635Z,14.80
2019-03-20T00:17:12.487Z,14.73
2019-03-20T00:20:00.723Z,13.50
2019-03-20T00:22:48.903Z,14.10
2019-03-20T00:25:36.583Z,12.73
2019-03-20T00:28:25.060Z,12.83
2019-03-20T00:31:13.462Z,12.10
2019-03-20T00:34:01.527Z,13.03
2019-03-20T00:36:49.743Z,13.53
2019-03-20T00:39:37.806Z,12.93
2019-03-20T00:42:26.395Z,13.30
2019-03-20T00:45:14.163Z,15.00
2019-03-20T00:48:02.255Z,13.50
2019-03-20T00:50:50.935Z,14.20
2019-03-20T00:53:39.235Z,13.17
2019-03-20T00:56:26.737Z,13.10
2019-03-20T00:59:14.954Z,13.63
2019-03-20T01:02:03.351Z,14.00
2019-03-20T01:04:50.903Z,13.33
2019-03-20T01:07:39.343Z,13.63
2019-03-20T01:10:27.698Z,14.40
2019-03-20T01:13:16.226Z,13.47
2019-03-20T01:16:03.738Z,14.27
2019-03-20T01:18:52.296Z,13.93
2019-03-20T01:21:40.711Z,14.50
2019-03-20T01:24:29.133Z,15.63
2019-03-20T01:27:17.474Z,14.73
2019-03-20T01:30:06.274Z,15.10
2019-03-20T01:32:54.395Z,13.97
2019-03-20T01:35:42.697Z,14.80
2019-03-20T01:38:31.836Z,14.73
2019-03-20T01:41:20.228Z,16.10
2019-03-20T01:44:09.003Z,15.43
2019-03-20T01:46:56.960Z,15.17
2019-03-20T01:49:45.111Z,14.40
2019-03-20T01:52:32.998Z,14.70
2019-03-20T01:55:21.074Z,15.07
2019-03-20T01:58:09.128Z,15.33
2019-03-20T02:00:57.395Z,14.03
2019-03-20T02:03:45.324Z,14.90
2019-03-20T02:06:33.385Z,16.50
2019-03-20T02:09:21.590Z,16.27
2019-03-20T02:12:10.552Z,14.63
2019-03-20T02:14:58.437Z,15.60
2019-03-20T02:17:47.586Z,14.00
2019-03-20T02:20:35.463Z,15.00
2019-03-20T02:23:23.591Z,16.10
2019-03-20T02:26:11.823Z,16.90
2019-03-20T02:28:59.982Z,16.83
2019-03-20T02:31:48.122Z,15.90
2019-03-20T02:34:36.009Z,16.43
2019-03-20T02:37:23.842Z,15.37
2019-03-20T02:40:12.244Z,14.83
2019-03-20T02:43:00.199Z,15.20
2019-03-20T02:45:48.330Z,16.10
2019-03-20T02:48:36.434Z,17.10
2019-03-20T02:51:25.025Z,17.37
2019-03-20T02:54:13.427Z,14.60
2019-03-20T02:57:01.631Z,16.27
2019-03-20T02:59:50.022Z,15.87
2019-03-20T03:02:37.661Z,14.93
2019-03-20T03:05:25.950Z,15.23
2019-03-20T03:08:14.687Z,16.07
2019-03-20T03:11:03.007Z,15.50
2019-03-20T03:13:51.328Z,15.53
2019-03-20T03:16:39.132Z,15.03
2019-03-20T03:19:27.482Z,15.53
2019-03-20T03:22:16.048Z,14.83
2019-03-20T03:25:05.180Z,14.93
2019-03-20T03:27:53.512Z,16.47
2019-03-20T03:30:42.146Z,16.37
2019-03-20T03:33:29.941Z,15.80
2019-03-20T03:36:21.498Z,17.43
2019-03-20T03:39:08.617Z,17.30
2019-03-20T03:41:56.580Z,16.10
2019-03-20T03:44:44.777Z,15.90
2019-03-20T03:47:32.328Z,16.63
2019-03-20T03:50:20.403Z,16.00
2019-03-20T03:53:08.592Z,17.63
2019-03-20T03:55:56.800Z,15.33
2019-03-20T03:58:45.036Z,16.43
2019-03-20T04:01:33.323Z,15.70
2019-03-20T04:04:21.749Z,16.17
2019-03-20T04:07:10.017Z,16.30
2019-03-20T04:09:58.299Z,16.00
2019-03-20T04:12:45.928Z,16.60
2019-03-20T04:15:36.426Z,16.10
2019-03-20T04:18:24.429Z,15.63
2019-03-20T04:21:12.221Z,14.90
2019-03-20T04:24:00.153Z,16.90
2019-03-20T04:26:48.402Z,16.13
2019-03-20T04:29:36.863Z,15.13
2019-03-20T04:32:24.987Z,16.07
2019-03-20T04:35:12.970Z,15.17
2019-03-20T04:38:01.235Z,17.80
2019-03-20T04:40:49.186Z,16.90
2019-03-20T04:43:37.460Z,17.90
2019-03-20T04:46:25.168Z,15.83
2019-03-20T04:49:13.479Z,18.03
2019-03-20T04:52:01.391Z,17.93
2019-03-20T04:54:49.744Z,18.10
2019-03-20T04:57:37.691Z,19.80
2019-03-20T05:00:26.285Z,17.70
2019-03-20T05:03:14.655Z,18.23
2019-03-20T05:06:03.052Z,18.37
2019-03-20T05:08:51.011Z,18.60
2019-03-20T05:11:39.233Z,18.13
2019-03-20T05:14:27.754Z,18.50
2019-03-20T05:17:16.661Z,17.97
2019-03-20T05:20:06.268Z,19.77
2019-03-20T05:22:54.623Z,19.50
2019-03-20T05:25:42.668Z,19.07
2019-03-20T05:28:30.451Z,19.97
2019-03-20T05:31:18.612Z,19.70
2019-03-20T05:34:06.246Z,19.90
2019-03-20T05:36:54.687Z,19.40
2019-03-20T05:39:42.264Z,19.07
2019-03-20T05:42:30.531Z,19.87
2019-03-20T05:45:19.092Z,18.90
2019-03-20T05:48:07.745Z,19.93
2019-03-20T05:50:55.514Z,19.57
2019-03-20T05:53:43.167Z,19.97
2019-03-20T05:56:31.369Z,19.67
2019-03-20T05:59:18.901Z,18.67
2019-03-20T06:02:07.451Z,20.00
2019-03-20T06:04:56.283Z,18.77
2019-03-20T06:07:44.458Z,18.60
2019-03-20T06:10:32.011Z,18.47
2019-03-20T06:13:19.988Z,17.97
2019-03-20T06:16:08.171Z,19.37
2019-03-20T06:18:56.470Z,20.27
2019-03-20T06:21:44.695Z,20.83
2019-03-20T06:24:32.503Z,19.20
2019-03-20T06:27:20.623Z,19.03
2019-03-20T06:30:11.867Z,20.17
2019-03-20T06:33:00.027Z,21.83
2019-03-20T06:35:47.535Z,19.50
2019-03-20T06:38:35.495Z,19.40
2019-03-20T06:41:24.206Z,21.40
2019-03-20T06:44:13.023Z,19.87
2019-03-20T06:47:00.817Z,19.57
2019-03-20T06:49:48.953Z,19.80
2019-03-20T06:52:36.931Z,19.87
2019-03-20T06:55:24.559Z,20.97
2019-03-20T06:58:12.780Z,19.77
2019-03-20T07:01:13.072Z,23.07
2019-03-20T07:04:32.524Z,19.67
2019-03-20T07:07:43.683Z,17.63
2019-03-20T07:11:06.297Z,19.17
2019-03-20T07:13:54.954Z,20.80
2019-03-20T07:16:42.731Z,19.27
2019-03-20T07:19:30.775Z,18.40
2019-03-20T07:22:19.155Z,16.30
2019-03-20T07:25:08.190Z,15.17
2019-03-20T07:27:56.519Z,13.53
2019-03-20T07:30:48.110Z,11.80
2019-03-20T07:33:36.327Z,14.40
2019-03-20T07:36:24.810Z,11.40
2019-03-20T07:39:13.263Z,12.10
2019-03-20T07:42:01.852Z,11.43
2019-03-20T07:44:49.323Z,12.37
2019-03-20T07:47:37.702Z,12.57
2019-03-20T07:50:25.230Z,14.03
2019-03-20T07:53:13.537Z,11.30
2019-03-20T07:56:01.108Z,9.27
2019-03-20T07:58:49.587Z,9.53
2019-03-20T08:01:37.894Z,10.63
2019-03-20T08:04:25.795Z,10.97
2019-03-20T08:07:13.567Z,7.80
2019-03-20T08:10:01.731Z,8.83
2019-03-20T08:12:50.263Z,10.10
2019-03-20T08:15:38.519Z,9.57
2019-03-20T08:18:26.741Z,8.17
2019-03-20T08:21:14.712Z,8.93
2019-03-20T08:24:02.267Z,7.90
2019-03-20T08:26:50.324Z,8.23
2019-03-20T08:29:38.558Z,8.87
2019-03-20T08:32:27.023Z,8.70
2019-03-20T08:35:15.758Z,7.93
2019-03-20T08:38:04.491Z,7.50
2019-03-20T08:40:52.615Z,7.60
2019-03-20T08:43:41.090Z,7.77
2019-03-20T08:46:29.553Z,8.57
2019-03-20T08:49:17.599Z,7.33
2019-03-20T08:52:05.683Z,7.53
2019-03-20T08:54:53.627Z,7.40
2019-03-20T08:57:42.011Z,8.20
2019-03-20T09:00:41.003Z,7.63
2019-03-20T09:03:28.898Z,7.97
2019-03-20T09:06:16.379Z,7.90
2019-03-20T09:09:06.921Z,8.70
2019-03-20T09:11:54.958Z,8.30
2019-03-20T09:14:42.999Z,9.23
2019-03-20T09:17:31.460Z,9.50
2019-03-20T09:20:19.767Z,7.77
2019-03-20T09:23:08.351Z,9.30
2019-03-20T09:25:55.984Z,8.97
2019-03-20T09:28:44.203Z,7.47
2019-03-20T09:31:32.127Z,9.23
2019-03-20T09:34:20.424Z,8.70
2019-03-20T09:37:08.939Z,8.00
2019-03-20T09:39:56.686Z,9.10
2019-03-20T09:42:44.707Z,8.37
2019-03-20T09:45:32.335Z,9.07
2019-03-20T09:48:20.002Z,9.40
2019-03-20T09:51:08.415Z,9.00
2019-03-20T09:53:56.566Z,8.03
2019-03-20T09:56:44.115Z,9.63
2019-03-20T09:59:32.441Z,9.40
2019-03-20T10:02:20.633Z,10.33
2019-03-20T10:05:08.807Z,10.73
2019-03-20T10:07:57.211Z,10.60
2019-03-20T10:10:45.120Z,10.80
2019-03-20T10:13:33.344Z,10.53
2019-03-20T10:16:20.843Z,11.67
2019-03-20T10:19:09.014Z,10.80
2019-03-20T10:21:57.135Z,11.10
2019-03-20T10:24:44.676Z,11.50
2019-03-20T10:27:32.963Z,12.23
2019-03-20T10:30:22.192Z,11.40
2019-03-20T10:33:10.061Z,11.07
2019-03-20T10:35:58.602Z,10.93
2019-03-20T10:38:48.799Z,9.90
2019-03-20T10:41:37.243Z,10.87
2019-03-20T10:44:24.884Z,7.93
2019-03-20T10:47:12.544Z,7.20
2019-03-20T10:50:00.897Z,7.50
2019-03-20T10:52:49.569Z,4.90
2019-03-20T10:55:37.852Z,4.17
2019-03-20T10:58:26.314Z,5.00
2019-03-20T11:01:14.371Z,4.00
2019-03-20T11:04:02.737Z,2.37
2019-03-20T11:06:50.647Z,4.07
2019-03-20T11:09:39.498Z,2.53
2019-03-20T11:12:27.825Z,2.23
2019-03-20T11:15:16.799Z,3.30
2019-03-20T11:18:04.703Z,5.20
2019-03-20T11:20:53.697Z,2.40
2019-03-20T11:23:41.602Z,2.03
2019-03-20T11:26:30.115Z,1.63
2019-03-20T11:29:21.516Z,1.97
2019-03-20T11:32:07.996Z,2.07
2019-03-20T11:34:56.485Z,1.70
2019-03-20T11:37:45.421Z,1.70
2019-03-20T11:40:33.547Z,1.77
2019-03-20T11:43:21.539Z,1.43
2019-03-20T11:46:10.067Z,2.10
2019-03-20T11:48:58.317Z,2.20
2019-03-20T11:51:46.851Z,2.70
2019-03-20T11:54:35.145Z,3.93
2019-03-20T11:57:22.765Z,1.70
2019-03-20T12:00:13.158Z,1.80
2019-03-20T12:03:01.519Z,1.90
2019-03-20T12:05:50.007Z,1.67
2019-03-20T12:08:38.203Z,1.60
2019-03-20T12:11:26.430Z,1.70
2019-03-20T12:14:14.638Z,1.40
2019-03-20T12:17:03.381Z,1.60
2019-03-20T12:19:51.732Z,1.70
2019-03-20T12:22:39.826Z,1.93
2019-03-20T12:25:28.647Z,2.40
2019-03-20T12:28:17.252Z,1.50
2019-03-20T12:31:06.727Z,2.77
2019-03-20T12:33:55.657Z,1.90
2019-03-20T12:36:43.895Z,2.10
2019-03-20T12:39:32.443Z,2.10
2019-03-20T12:42:21.163Z,2.37
2019-03-20T12:45:11.359Z,2.57
2019-03-20T12:47:59.786Z,2.53
2019-03-20T12:50:47.581Z,2.60
2019-03-20T12:53:35.206Z,2.80
2019-03-20T12:56:23.411Z,2.30
2019-03-20T12:59:11.502Z,2.43
2019-03-20T13:01:59.497Z,2.40
2019-03-20T13:04:47.740Z,2.63
2019-03-20T13:07:35.775Z,3.37
2019-03-20T13:10:23.871Z,3.20
2019-03-20T13:13:12.537Z,3.80
2019-03-20T13:16:00.907Z,2.80
2019-03-20T13:18:49.403Z,2.93
2019-03-20T13:21:37.924Z,3.23
2019-03-20T13:24:25.725Z,3.10
2019-03-20T13:27:14.289Z,3.47
2019-03-20T13:30:02.431Z,3.33
2019-03-20T13:32:50.687Z,3.07
2019-03-20T13:35:39.663Z,3.90
2019-03-20T13:38:27.683Z,4.10
2019-03-20T13:41:15.493Z,4.30
2019-03-20T13:44:03.386Z,4.17
2019-03-20T13:46:51.543Z,5.00
2019-03-20T13:49:39.727Z,4.60
2019-03-20T13:52:27.909Z,4.30
2019-03-20T13:55:16.291Z,5.20
2019-03-20T13:58:03.942Z,5.20
2019-03-20T14:00:52.651Z,5.70
2019-03-20T14:03:41.139Z,5.60
2019-03-20T14:06:29.093Z,6.07
2019-03-20T14:09:16.645Z,6.00
2019-03-20T14:12:05.157Z,5.37
2019-03-20T14:14:52.982Z,4.60
2019-03-20T14:17:41.791Z,4.77
2019-03-20T14:20:29.595Z,5.37
2019-03-20T14:23:17.975Z,5.37
2019-03-20T14:26:06.361Z,5.63
2019-03-20T14:28:54.661Z,5.60
2019-03-20T14:31:42.673Z,5.67
2019-03-20T14:34:31.207Z,4.53
2019-03-20T14:37:19.655Z,4.10
2019-03-20T14:40:09.191Z,4.80
2019-03-20T14:42:57.361Z,4.70
2019-03-20T14:45:45.797Z,5.60
2019-03-20T14:48:34.331Z,6.47
2019-03-20T14:51:22.503Z,6.67
2019-03-20T14:54:10.583Z,6.50
2019-03-20T14:56:58.448Z,6.63
2019-03-20T14:59:46.559Z,5.67
2019-03-20T15:02:34.767Z,5.80
2019-03-20T15:05:23.072Z,5.83
2019-03-20T15:08:11.691Z,5.70
2019-03-20T15:11:00.130Z,5.57
2019-03-20T15:13:48.483Z,6.30
2019-03-20T15:16:36.538Z,5.40
2019-03-20T15:19:24.768Z,6.37
2019-03-20T15:22:12.996Z,7.83
2019-03-20T15:25:00.872Z,6.80
2019-03-20T15:27:49.203Z,7.20
2019-03-20T15:30:36.769Z,6.33
2019-03-20T15:33:25.194Z,6.57
2019-03-20T15:36:13.399Z,6.07
2019-03-20T15:39:01.322Z,6.73
2019-03-20T15:41:50.070Z,7.20
2019-03-20T15:44:38.104Z,6.67
2019-03-20T15:47:26.679Z,6.00
2019-03-20T15:50:15.966Z,6.07
2019-03-20T15:53:04.335Z,6.87
2019-03-20T15:55:52.403Z,5.93
2019-03-20T15:58:40.876Z,7.30
2019-03-20T16:01:29.489Z,7.00
2019-03-20T16:04:17.887Z,6.60
2019-03-20T16:07:05.959Z,8.07
2019-03-20T16:09:54.135Z,6.57
2019-03-20T16:12:42.324Z,6.27
2019-03-20T16:15:30.960Z,6.83
2019-03-20T16:18:19.226Z,7.03
2019-03-20T16:21:07.134Z,8.03
2019-03-20T16:23:55.662Z,6.90
2019-03-20T16:26:44.280Z,7.07
2019-03-20T16:29:32.605Z,6.40
2019-03-20T16:32:20.588Z,5.77
2019-03-20T16:35:08.974Z,6.80
2019-03-20T16:37:56.793Z,6.43
2019-03-20T16:40:44.332Z,7.33
2019-03-20T16:43:32.270Z,6.87
2019-03-20T16:46:20.654Z,6.77
2019-03-20T16:49:08.908Z,7.07
2019-03-20T16:51:57.139Z,6.40
2019-03-20T16:54:44.874Z,6.63
2019-03-20T16:57:33.318Z,5.67
2019-03-20T17:00:25.351Z,6.23
2019-03-20T17:03:13.735Z,6.90
2019-03-20T17:06:01.839Z,6.23
2019-03-20T17:08:49.739Z,6.47
2019-03-20T17:11:38.598Z,7.50
2019-03-20T17:14:26.930Z,5.83
2019-03-20T17:17:15.316Z,7.37
2019-03-20T17:20:03.379Z,6.10
2019-03-20T17:22:52.075Z,6.60
2019-03-20T17:25:39.810Z,6.23
2019-03-20T17:28:27.907Z,5.70
2019-03-20T17:31:16.071Z,6.67
2019-03-20T17:34:04.226Z,6.50
2019-03-20T17:36:52.426Z,6.27
2019-03-20T17:39:40.533Z,6.37
2019-03-20T17:42:28.057Z,5.83
2019-03-20T17:45:16.963Z,6.87
2019-03-20T17:48:05.530Z,6.50
2019-03-20T17:50:54.059Z,8.00
2019-03-20T17:53:42.018Z,6.33
2019-03-20T17:56:29.580Z,8.57
2019-03-20T17:59:17.827Z,6.93
2019-03-20T18:02:06.320Z,10.00
2019-03-20T18:04:54.480Z,9.23
2019-03-20T18:07:42.774Z,8.67
2019-03-20T18:10:30.707Z,9.27
2019-03-20T18:13:19.295Z,8.97
2019-03-20T18:16:06.904Z,8.40
2019-03-20T18:18:54.908Z,9.80
2019-03-20T18:21:42.675Z,10.33
2019-03-20T18:24:30.699Z,9.63
2019-03-20T18:27:18.463Z,11.10
2019-03-20T18:30:13.339Z,9.87
2019-03-20T18:33:01.776Z,10.77
2019-03-20T18:35:49.398Z,11.37
2019-03-20T18:38:38.077Z,12.10
2019-03-20T18:41:26.636Z,10.70
2019-03-20T18:44:15.643Z,10.57
2019-03-20T18:47:03.905Z,10.43
2019-03-20T18:49:52.115Z,11.20
2019-03-20T18:52:40.811Z,12.30
2019-03-20T18:55:29.459Z,10.60
2019-03-20T18:58:17.689Z,11.63
2019-03-20T19:01:05.868Z,13.73
2019-03-20T19:03:54.362Z,14.27
2019-03-20T19:06:42.435Z,13.80
2019-03-20T19:09:31.091Z,13.90
2019-03-20T19:12:19.577Z,14.53
2019-03-20T19:15:08.259Z,13.60
2019-03-20T19:17:56.511Z,13.10
2019-03-20T19:20:44.616Z,13.10
2019-03-20T19:23:33.047Z,14.57
2019-03-20T19:26:21.371Z,13.00
2019-03-20T19:29:09.255Z,13.57
2019-03-20T19:31:57.399Z,12.90
2019-03-20T19:34:45.765Z,13.23
2019-03-20T19:37:34.016Z,12.03
2019-03-20T19:40:21.877Z,12.63
2019-03-20T19:43:09.489Z,11.40
2019-03-20T19:45:57.387Z,12.40
2019-03-20T19:48:45.666Z,11.77
2019-03-20T19:51:33.245Z,11.47
2019-03-20T19:54:21.136Z,10.50
2019-03-20T19:57:09.085Z,11.10
2019-03-20T19:59:57.350Z,12.80
2019-03-20T20:02:44.900Z,12.30
2019-03-20T20:05:33.244Z,13.27
2019-03-20T20:08:21.741Z,13.17
2019-03-20T20:11:09.726Z,10.80
2019-03-20T20:13:57.392Z,12.20
2019-03-20T20:16:45.039Z,12.77
2019-03-20T20:19:33.371Z,11.17
2019-03-20T20:22:20.871Z,10.80
2019-03-20T20:25:09.371Z,12.30
2019-03-20T20:27:57.588Z,12.00
2019-03-20T20:30:46.177Z,11.57
2019-03-20T20:33:34.035Z,11.67
2019-03-20T20:36:22.276Z,10.53
2019-03-20T20:39:10.636Z,11.57
2019-03-20T20:41:58.220Z,10.90
2019-03-20T20:44:47.131Z,9.50
2019-03-20T20:47:35.421Z,9.90
2019-03-20T20:50:23.719Z,9.93
2019-03-20T20:53:11.561Z,10.13
2019-03-20T20:55:59.988Z,11.07
2019-03-20T20:58:48.231Z,11.60
2019-03-20T21:01:36.716Z,10.20
2019-03-20T21:04:25.432Z,12.30
2019-03-20T21:07:13.841Z,12.17
2019-03-20T21:10:02.007Z,14.03
2019-03-20T21:12:56.194Z,12.20
2019-03-20T21:15:45.862Z,13.73
2019-03-20T21:19:07.409Z,13.27
2019-03-20T21:22:43.148Z,15.30
2019-03-20T21:25:32.584Z,15.60
2019-03-20T21:29:07.469Z,14.10
2019-03-20T21:32:05.313Z,10.20
2019-03-20T21:35:47.149Z,9.90
2019-03-20T21:38:36.041Z,13.13
2019-03-20T21:42:06.562Z,12.30
2019-03-20T21:45:35.398Z,10.13
2019-03-20T21:48:24.112Z,9.93
2019-03-20T21:51:17.639Z,10.23
2019-03-20T21:54:45.126Z,9.97
2019-03-20T21:58:22.957Z,9.80
2019-03-20T22:01:34.890Z,10.10
2019-03-20T22:04:23.665Z,10.17
2019-03-20T22:07:13.058Z,11.10
2019-03-20T22:10:40.005Z,11.07
2019-03-20T22:13:47.420Z,11.90
2019-03-20T22:17:11.540Z,10.20
2019-03-20T22:20:09.828Z,10.93
2019-03-20T22:23:18.815Z,11.17
2019-03-20T22:26:51.026Z,12.07
2019-03-20T22:29:39.172Z,11.80
2019-03-20T22:33:10.825Z,11.67
2019-03-20T22:36:20.788Z,10.93
2019-03-20T22:39:58.921Z,11.43
2019-03-20T22:42:51.801Z,12.07
2019-03-20T22:46:29.984Z,13.73
2019-03-20T22:49:46.249Z,12.83
2019-03-20T22:53:15.093Z,14.40
2019-03-20T22:56:43.871Z,12.90
2019-03-20T22:59:32.714Z,12.80
2019-03-20T23:02:29.633Z,15.30
2019-03-20T23:05:18.453Z,14.87
2019-03-20T23:08:16.164Z,15.13
2019-03-20T23:11:05.076Z,13.87
2019-03-20T23:13:53.428Z,14.77
2019-03-20T23:16:42.620Z,14.00
2019-03-20T23:19:31.799Z,14.10
2019-03-20T23:22:20.668Z,12.57
2019-03-20T23:25:09.457Z,12.30
2019-03-20T23:27:58.428Z,12.73
2019-03-20T23:30:47.243Z,12.00
2019-03-20T23:33:35.935Z,11.67
2019-03-20T23:36:25.082Z,11.17
2019-03-20T23:39:14.060Z,11.80
2019-03-20T23:42:02.811Z,12.60
2019-03-20T23:44:52.016Z,11.80
2019-03-20T23:47:54.625Z,12.80
2019-03-20T23:50:42.936Z,12.50
2019-03-20T23:53:31.712Z,12.30
2019-03-20T23:56:20.303Z,11.70
2019-03-20T23:59:09.154Z,11.47
